sensor_id;sensor_type;location;lat;lon;timestamp;P1;durP1;ratioP1;P2;durP2;ratioP2
13279;SDS011;6708;49.814;8.652;2022-08-19T00:01:29;7.73;;;7.03;;
13279;SDS011;6708;49.814;8.652;2022-08-19T00:03:59;7.10;;;6.40;;
13279;SDS011;6708;49.814;8.652;2022-08-19T00:06:30;7.27;;;6.67;;
13279;SDS011;6708;49.814;8.652;2022-08-19T00:08:58;7.30;;;6.70;;
13279;SDS011;6708;49.814;8.652;2022-08-19T00:11:28;8.97;;;7.23;;
13279;SDS011;6708;49.814;8.652;2022-08-19T00:14:00;7.23;;;6.60;;
13279;SDS011;6708;49.814;8.652;2022-08-19T00:16:28;7.27;;;6.57;;
13279;SDS011;6708;49.814;8.652;2022-08-19T00:18:57;7.80;;;6.97;;
13279;SDS011;6708;49.814;8.652;2022-08-19T00:21:26;7.10;;;6.50;;
13279;SDS011;6708;49.814;8.652;2022-08-19T00:23:55;8.50;;;7.60;;
13279;SDS011;6708;49.814;8.652;2022-08-19T00:26:24;7.80;;;6.47;;
13279;SDS011;6708;49.814;8.652;2022-08-19T00:28:53;6.63;;;6.07;;
13279;SDS011;6708;49.814;8.652;2022-08-19T00:31:25;6.77;;;6.17;;
13279;SDS011;6708;49.814;8.652;2022-08-19T00:33:54;7.33;;;6.63;;
13279;SDS011;6708;49.814;8.652;2022-08-19T00:36:23;7.20;;;6.60;;
13279;SDS011;6708;49.814;8.652;2022-08-19T00:38:53;7.53;;;6.87;;
13279;SDS011;6708;49.814;8.652;2022-08-19T00:41:23;7.97;;;7.20;;
13279;SDS011;6708;49.814;8.652;2022-08-19T00:43:59;8.30;;;7.03;;
13279;SDS011;6708;49.814;8.652;2022-08-19T00:46:32;8.37;;;7.53;;
13279;SDS011;6708;49.814;8.652;2022-08-19T00:49:02;6.77;;;6.20;;
13279;SDS011;6708;49.814;8.652;2022-08-19T00:51:33;7.70;;;7.00;;
13279;SDS011;6708;49.814;8.652;2022-08-19T00:54:02;7.17;;;6.57;;
13279;SDS011;6708;49.814;8.652;2022-08-19T00:56:31;7.37;;;6.67;;
13279;SDS011;6708;49.814;8.652;2022-08-19T00:59:00;6.53;;;6.00;;
13279;SDS011;6708;49.814;8.652;2022-08-19T01:01:36;7.83;;;7.13;;
13279;SDS011;6708;49.814;8.652;2022-08-19T01:04:06;7.57;;;6.97;;
13279;SDS011;6708;49.814;8.652;2022-08-19T01:06:35;8.10;;;7.17;;
13279;SDS011;6708;49.814;8.652;2022-08-19T01:09:04;7.53;;;6.83;;
13279;SDS011;6708;49.814;8.652;2022-08-19T01:11:35;7.10;;;6.50;;
13279;SDS011;6708;49.814;8.652;2022-08-19T01:14:06;7.13;;;6.53;;
13279;SDS011;6708;49.814;8.652;2022-08-19T01:16:38;7.13;;;6.60;;
13279;SDS011;6708;49.814;8.652;2022-08-19T01:19:09;8.10;;;6.90;;
13279;SDS011;6708;49.814;8.652;2022-08-19T01:21:44;7.00;;;6.40;;
13279;SDS011;6708;49.814;8.652;2022-08-19T01:24:18;7.90;;;7.03;;
13279;SDS011;6708;49.814;8.652;2022-08-19T01:26:47;6.93;;;6.33;;
13279;SDS011;6708;49.814;8.652;2022-08-19T01:29:15;8.13;;;7.03;;
13279;SDS011;6708;49.814;8.652;2022-08-19T01:31:44;7.63;;;7.03;;
13279;SDS011;6708;49.814;8.652;2022-08-19T01:34:17;7.47;;;6.80;;
13279;SDS011;6708;49.814;8.652;2022-08-19T01:36:47;7.37;;;6.77;;
13279;SDS011;6708;49.814;8.652;2022-08-19T01:39:19;6.67;;;6.17;;
13279;SDS011;6708;49.814;8.652;2022-08-19T01:41:50;10.10;;;6.47;;
13279;SDS011;6708;49.814;8.652;2022-08-19T01:44:20;7.87;;;7.10;;
13279;SDS011;6708;49.814;8.652;2022-08-19T01:46:49;10.07;;;7.80;;
13279;SDS011;6708;49.814;8.652;2022-08-19T01:49:19;8.27;;;7.47;;
13279;SDS011;6708;49.814;8.652;2022-08-19T01:51:50;8.90;;;7.50;;
13279;SDS011;6708;49.814;8.652;2022-08-19T01:54:22;8.60;;;7.70;;
13279;SDS011;6708;49.814;8.652;2022-08-19T01:56:52;13.27;;;7.67;;
13279;SDS011;6708;49.814;8.652;2022-08-19T01:59:24;7.83;;;7.10;;
13279;SDS011;6708;49.814;8.652;2022-08-19T02:01:53;7.17;;;6.57;;
13279;SDS011;6708;49.814;8.652;2022-08-19T02:04:21;7.30;;;6.70;;
13279;SDS011;6708;49.814;8.652;2022-08-19T02:06:52;8.43;;;7.00;;
13279;SDS011;6708;49.814;8.652;2022-08-19T02:09:24;9.57;;;7.67;;
13279;SDS011;6708;49.814;8.652;2022-08-19T02:11:55;8.13;;;7.40;;
13279;SDS011;6708;49.814;8.652;2022-08-19T02:14:23;8.77;;;7.53;;
13279;SDS011;6708;49.814;8.652;2022-08-19T02:16:52;6.70;;;6.10;;
13279;SDS011;6708;49.814;8.652;2022-08-19T02:19:20;6.93;;;6.30;;
13279;SDS011;6708;49.814;8.652;2022-08-19T02:21:49;6.53;;;5.97;;
13279;SDS011;6708;49.814;8.652;2022-08-19T02:24:17;7.20;;;6.50;;
13279;SDS011;6708;49.814;8.652;2022-08-19T02:26:49;7.17;;;6.40;;
13279;SDS011;6708;49.814;8.652;2022-08-19T02:29:18;6.87;;;6.23;;
13279;SDS011;6708;49.814;8.652;2022-08-19T02:31:46;8.03;;;7.30;;
13279;SDS011;6708;49.814;8.652;2022-08-19T02:34:15;7.17;;;6.57;;
13279;SDS011;6708;49.814;8.652;2022-08-19T02:36:44;8.83;;;7.17;;
13279;SDS011;6708;49.814;8.652;2022-08-19T02:39:13;7.53;;;6.77;;
13279;SDS011;6708;49.814;8.652;2022-08-19T02:41:39;7.20;;;6.60;;
13279;SDS011;6708;49.814;8.652;2022-08-19T02:44:10;6.97;;;6.37;;
13279;SDS011;6708;49.814;8.652;2022-08-19T02:46:39;7.20;;;6.60;;
13279;SDS011;6708;49.814;8.652;2022-08-19T02:49:08;7.23;;;6.60;;
13279;SDS011;6708;49.814;8.652;2022-08-19T02:51:38;6.97;;;6.37;;
13279;SDS011;6708;49.814;8.652;2022-08-19T02:54:09;7.87;;;6.60;;
13279;SDS011;6708;49.814;8.652;2022-08-19T02:56:39;7.20;;;6.60;;
13279;SDS011;6708;49.814;8.652;2022-08-19T02:59:12;6.80;;;6.20;;
13279;SDS011;6708;49.814;8.652;2022-08-19T03:01:41;7.57;;;6.73;;
13279;SDS011;6708;49.814;8.652;2022-08-19T03:04:10;6.70;;;6.10;;
13279;SDS011;6708;49.814;8.652;2022-08-19T03:06:42;7.43;;;6.73;;
13279;SDS011;6708;49.814;8.652;2022-08-19T03:09:13;7.40;;;6.23;;
13279;SDS011;6708;49.814;8.652;2022-08-19T03:11:42;7.40;;;6.77;;
13279;SDS011;6708;49.814;8.652;2022-08-19T03:14:13;6.47;;;5.93;;
13279;SDS011;6708;49.814;8.652;2022-08-19T03:16:44;6.20;;;5.63;;
13279;SDS011;6708;49.814;8.652;2022-08-19T03:19:13;6.60;;;6.00;;
13279;SDS011;6708;49.814;8.652;2022-08-19T03:21:44;7.13;;;6.47;;
13279;SDS011;6708;49.814;8.652;2022-08-19T03:24:14;7.33;;;6.73;;
13279;SDS011;6708;49.814;8.652;2022-08-19T03:26:44;7.63;;;6.93;;
13279;SDS011;6708;49.814;8.652;2022-08-19T03:29:19;6.90;;;6.40;;
13279;SDS011;6708;49.814;8.652;2022-08-19T03:31:48;7.13;;;6.60;;
13279;SDS011;6708;49.814;8.652;2022-08-19T03:34:18;7.07;;;6.37;;
13279;SDS011;6708;49.814;8.652;2022-08-19T03:36:51;7.17;;;6.57;;
13279;SDS011;6708;49.814;8.652;2022-08-19T03:39:20;7.30;;;6.57;;
13279;SDS011;6708;49.814;8.652;2022-08-19T03:41:49;6.27;;;5.83;;
13279;SDS011;6708;49.814;8.652;2022-08-19T03:44:24;6.87;;;6.17;;
13279;SDS011;6708;49.814;8.652;2022-08-19T03:46:53;6.60;;;6.10;;
13279;SDS011;6708;49.814;8.652;2022-08-19T03:49:24;6.90;;;6.03;;
13279;SDS011;6708;49.814;8.652;2022-08-19T03:51:55;6.50;;;6.00;;
13279;SDS011;6708;49.814;8.652;2022-08-19T03:54:26;6.77;;;6.17;;
13279;SDS011;6708;49.814;8.652;2022-08-19T03:56:58;7.50;;;6.83;;
13279;SDS011;6708;49.814;8.652;2022-08-19T03:59:31;6.00;;;5.60;;
13279;SDS011;6708;49.814;8.652;2022-08-19T04:02:02;7.30;;;6.33;;
13279;SDS011;6708;49.814;8.652;2022-08-19T04:04:34;6.40;;;6.00;;
13279;SDS011;6708;49.814;8.652;2022-08-19T04:07:04;6.03;;;5.53;;
13279;SDS011;6708;49.814;8.652;2022-08-19T04:09:33;7.47;;;6.73;;
13279;SDS011;6708;49.814;8.652;2022-08-19T04:12:03;6.53;;;6.03;;
13279;SDS011;6708;49.814;8.652;2022-08-19T04:14:36;7.40;;;6.17;;
13279;SDS011;6708;49.814;8.652;2022-08-19T04:17:05;6.67;;;6.17;;
13279;SDS011;6708;49.814;8.652;2022-08-19T04:19:35;6.70;;;6.10;;
13279;SDS011;6708;49.814;8.652;2022-08-19T04:22:04;5.53;;;5.13;;
13279;SDS011;6708;49.814;8.652;2022-08-19T04:24:33;6.43;;;5.83;;
13279;SDS011;6708;49.814;8.652;2022-08-19T04:27:03;7.70;;;6.07;;
13279;SDS011;6708;49.814;8.652;2022-08-19T04:29:32;6.43;;;5.80;;
13279;SDS011;6708;49.814;8.652;2022-08-19T04:32:07;6.40;;;5.83;;
13279;SDS011;6708;49.814;8.652;2022-08-19T04:34:36;5.93;;;5.47;;
13279;SDS011;6708;49.814;8.652;2022-08-19T04:37:06;6.63;;;6.13;;
13279;SDS011;6708;49.814;8.652;2022-08-19T04:39:38;6.03;;;5.53;;
13279;SDS011;6708;49.814;8.652;2022-08-19T04:42:19;5.73;;;5.23;;
13279;SDS011;6708;49.814;8.652;2022-08-19T04:45:00;5.40;;;5.10;;
13279;SDS011;6708;49.814;8.652;2022-08-19T04:47:31;5.83;;;5.43;;
13279;SDS011;6708;49.814;8.652;2022-08-19T04:50:00;6.10;;;5.70;;
13279;SDS011;6708;49.814;8.652;2022-08-19T04:52:29;5.87;;;5.37;;
13279;SDS011;6708;49.814;8.652;2022-08-19T04:54:59;5.23;;;4.93;;
13279;SDS011;6708;49.814;8.652;2022-08-19T04:57:28;5.53;;;5.03;;
13279;SDS011;6708;49.814;8.652;2022-08-19T04:59:56;6.10;;;5.63;;
13279;SDS011;6708;49.814;8.652;2022-08-19T05:02:25;5.53;;;5.10;;
13279;SDS011;6708;49.814;8.652;2022-08-19T05:04:59;5.50;;;5.10;;
13279;SDS011;6708;49.814;8.652;2022-08-19T05:07:27;5.87;;;5.40;;
13279;SDS011;6708;49.814;8.652;2022-08-19T05:09:57;6.60;;;6.00;;
13279;SDS011;6708;49.814;8.652;2022-08-19T05:12:25;5.23;;;4.93;;
13279;SDS011;6708;49.814;8.652;2022-08-19T05:14:55;5.00;;;4.67;;
13279;SDS011;6708;49.814;8.652;2022-08-19T05:17:24;6.10;;;5.50;;
13279;SDS011;6708;49.814;8.652;2022-08-19T05:19:53;5.80;;;5.27;;
13279;SDS011;6708;49.814;8.652;2022-08-19T05:22:36;6.00;;;5.60;;
13279;SDS011;6708;49.814;8.652;2022-08-19T05:25:06;5.90;;;5.40;;
13279;SDS011;6708;49.814;8.652;2022-08-19T05:27:37;8.03;;;5.27;;
13279;SDS011;6708;49.814;8.652;2022-08-19T05:30:06;5.50;;;5.03;;
13279;SDS011;6708;49.814;8.652;2022-08-19T05:32:36;7.57;;;5.33;;
13279;SDS011;6708;49.814;8.652;2022-08-19T05:35:05;5.77;;;5.30;;
13279;SDS011;6708;49.814;8.652;2022-08-19T05:37:37;5.13;;;4.83;;
13279;SDS011;6708;49.814;8.652;2022-08-19T05:40:07;5.87;;;5.37;;
13279;SDS011;6708;49.814;8.652;2022-08-19T05:42:36;5.90;;;5.40;;
13279;SDS011;6708;49.814;8.652;2022-08-19T05:45:05;5.80;;;5.40;;
13279;SDS011;6708;49.814;8.652;2022-08-19T05:47:35;5.53;;;5.23;;
13279;SDS011;6708;49.814;8.652;2022-08-19T05:50:04;5.63;;;5.23;;
13279;SDS011;6708;49.814;8.652;2022-08-19T05:52:33;5.60;;;5.20;;
13279;SDS011;6708;49.814;8.652;2022-08-19T05:55:08;5.33;;;5.03;;
13279;SDS011;6708;49.814;8.652;2022-08-19T05:57:37;5.73;;;5.23;;
13279;SDS011;6708;49.814;8.652;2022-08-19T06:00:06;5.70;;;5.20;;
13279;SDS011;6708;49.814;8.652;2022-08-19T06:02:37;6.00;;;5.53;;
13279;SDS011;6708;49.814;8.652;2022-08-19T06:05:07;6.37;;;5.80;;
13279;SDS011;6708;49.814;8.652;2022-08-19T06:07:39;7.10;;;6.50;;
13279;SDS011;6708;49.814;8.652;2022-08-19T06:10:09;6.63;;;6.03;;
13279;SDS011;6708;49.814;8.652;2022-08-19T06:12:38;7.67;;;6.90;;
13279;SDS011;6708;49.814;8.652;2022-08-19T06:15:08;6.63;;;6.13;;
13279;SDS011;6708;49.814;8.652;2022-08-19T06:17:38;7.37;;;6.67;;
13279;SDS011;6708;49.814;8.652;2022-08-19T06:20:10;5.73;;;5.30;;
13279;SDS011;6708;49.814;8.652;2022-08-19T06:22:48;8.27;;;7.00;;
13279;SDS011;6708;49.814;8.652;2022-08-19T06:25:17;6.93;;;6.30;;
13279;SDS011;6708;49.814;8.652;2022-08-19T06:27:46;7.47;;;6.73;;
13279;SDS011;6708;49.814;8.652;2022-08-19T06:30:15;7.80;;;7.00;;
13279;SDS011;6708;49.814;8.652;2022-08-19T06:32:43;8.00;;;7.20;;
13279;SDS011;6708;49.814;8.652;2022-08-19T06:35:12;10.13;;;7.20;;
13279;SDS011;6708;49.814;8.652;2022-08-19T06:37:41;8.30;;;7.50;;
13279;SDS011;6708;49.814;8.652;2022-08-19T06:40:14;7.40;;;6.73;;
13279;SDS011;6708;49.814;8.652;2022-08-19T06:42:42;8.67;;;7.73;;
13279;SDS011;6708;49.814;8.652;2022-08-19T06:45:11;9.33;;;7.70;;
13279;SDS011;6708;49.814;8.652;2022-08-19T06:47:40;7.90;;;7.10;;
13279;SDS011;6708;49.814;8.652;2022-08-19T06:50:09;8.30;;;7.47;;
13279;SDS011;6708;49.814;8.652;2022-08-19T06:52:40;7.13;;;6.43;;
13279;SDS011;6708;49.814;8.652;2022-08-19T06:55:08;11.23;;;6.17;;
13279;SDS011;6708;49.814;8.652;2022-08-19T06:57:39;7.00;;;5.47;;
13279;SDS011;6708;49.814;8.652;2022-08-19T07:00:11;6.20;;;5.60;;
13279;SDS011;6708;49.814;8.652;2022-08-19T07:02:41;7.03;;;6.13;;
13279;SDS011;6708;49.814;8.652;2022-08-19T07:05:10;6.73;;;6.13;;
13279;SDS011;6708;49.814;8.652;2022-08-19T07:07:38;7.03;;;6.33;;
13279;SDS011;6708;49.814;8.652;2022-08-19T07:10:08;8.07;;;6.43;;
13279;SDS011;6708;49.814;8.652;2022-08-19T07:12:40;6.47;;;5.87;;
13279;SDS011;6708;49.814;8.652;2022-08-19T07:15:09;6.70;;;6.17;;
13279;SDS011;6708;49.814;8.652;2022-08-19T07:17:38;6.87;;;6.27;;
13279;SDS011;6708;49.814;8.652;2022-08-19T07:20:09;6.13;;;5.40;;
13279;SDS011;6708;49.814;8.652;2022-08-19T07:22:38;6.67;;;6.07;;
13279;SDS011;6708;49.814;8.652;2022-08-19T07:25:08;5.97;;;5.37;;
13279;SDS011;6708;49.814;8.652;2022-08-19T07:27:41;5.93;;;5.13;;
13279;SDS011;6708;49.814;8.652;2022-08-19T07:30:10;4.13;;;3.83;;
13279;SDS011;6708;49.814;8.652;2022-08-19T07:32:39;5.37;;;4.23;;
13279;SDS011;6708;49.814;8.652;2022-08-19T07:35:08;5.20;;;4.10;;
13279;SDS011;6708;49.814;8.652;2022-08-19T07:37:37;4.27;;;4.07;;
13279;SDS011;6708;49.814;8.652;2022-08-19T07:40:09;3.53;;;3.33;;
13279;SDS011;6708;49.814;8.652;2022-08-19T07:42:42;4.13;;;3.83;;
13279;SDS011;6708;49.814;8.652;2022-08-19T07:45:11;4.50;;;3.97;;
13279;SDS011;6708;49.814;8.652;2022-08-19T07:47:41;3.97;;;3.60;;
13279;SDS011;6708;49.814;8.652;2022-08-19T07:50:10;3.88;;;3.58;;
13279;SDS011;6708;49.814;8.652;2022-08-19T07:52:39;4.00;;;3.58;;
13279;SDS011;6708;49.814;8.652;2022-08-19T07:55:09;4.70;;;4.30;;
13279;SDS011;6708;49.814;8.652;2022-08-19T07:57:41;4.25;;;3.85;;
13279;SDS011;6708;49.814;8.652;2022-08-19T08:00:10;3.97;;;3.70;;
13279;SDS011;6708;49.814;8.652;2022-08-19T08:02:39;2.80;;;2.63;;
13279;SDS011;6708;49.814;8.652;2022-08-19T08:05:08;3.78;;;3.47;;
13279;SDS011;6708;49.814;8.652;2022-08-19T08:07:49;3.63;;;3.33;;
13279;SDS011;6708;49.814;8.652;2022-08-19T08:10:30;5.32;;;3.55;;
13279;SDS011;6708;49.814;8.652;2022-08-19T08:13:01;4.18;;;3.28;;
13279;SDS011;6708;49.814;8.652;2022-08-19T08:15:30;2.83;;;2.63;;
13279;SDS011;6708;49.814;8.652;2022-08-19T08:17:59;3.15;;;2.95;;
13279;SDS011;6708;49.814;8.652;2022-08-19T08:20:28;2.92;;;2.72;;
13279;SDS011;6708;49.814;8.652;2022-08-19T08:22:56;3.17;;;2.97;;
13279;SDS011;6708;49.814;8.652;2022-08-19T08:25:37;3.28;;;3.00;;
13279;SDS011;6708;49.814;8.652;2022-08-19T08:28:08;3.58;;;3.28;;
13279;SDS011;6708;49.814;8.652;2022-08-19T08:30:37;3.40;;;3.20;;
13279;SDS011;6708;49.814;8.652;2022-08-19T08:33:07;3.35;;;3.10;;
13279;SDS011;6708;49.814;8.652;2022-08-19T08:35:36;2.85;;;2.72;;
13279;SDS011;6708;49.814;8.652;2022-08-19T08:38:07;3.08;;;2.88;;
13279;SDS011;6708;49.814;8.652;2022-08-19T08:40:38;2.90;;;2.70;;
13279;SDS011;6708;49.814;8.652;2022-08-19T08:43:12;3.33;;;3.05;;
13279;SDS011;6708;49.814;8.652;2022-08-19T08:45:50;5.57;;;3.55;;
13279;SDS011;6708;49.814;8.652;2022-08-19T08:48:23;3.22;;;2.95;;
13279;SDS011;6708;49.814;8.652;2022-08-19T08:50:57;2.95;;;2.72;;
13279;SDS011;6708;49.814;8.652;2022-08-19T08:53:26;5.88;;;2.95;;
13279;SDS011;6708;49.814;8.652;2022-08-19T08:55:56;2.92;;;2.72;;
13279;SDS011;6708;49.814;8.652;2022-08-19T08:58:29;2.15;;;2.05;;
13279;SDS011;6708;49.814;8.652;2022-08-19T09:01:01;3.17;;;1.90;;
13279;SDS011;6708;49.814;8.652;2022-08-19T09:03:30;2.08;;;1.98;;
13279;SDS011;6708;49.814;8.652;2022-08-19T09:06:00;2.30;;;2.08;;
13279;SDS011;6708;49.814;8.652;2022-08-19T09:08:39;2.50;;;2.40;;
13279;SDS011;6708;49.814;8.652;2022-08-19T09:11:09;2.15;;;2.08;;
13279;SDS011;6708;49.814;8.652;2022-08-19T09:13:44;2.40;;;1.98;;
13279;SDS011;6708;49.814;8.652;2022-08-19T09:16:19;2.35;;;2.10;;
13279;SDS011;6708;49.814;8.652;2022-08-19T09:18:52;2.90;;;2.20;;
13279;SDS011;6708;49.814;8.652;2022-08-19T09:21:24;1.90;;;1.90;;
13279;SDS011;6708;49.814;8.652;2022-08-19T09:23:53;2.20;;;2.10;;
13279;SDS011;6708;49.814;8.652;2022-08-19T09:26:23;2.00;;;1.90;;
13279;SDS011;6708;49.814;8.652;2022-08-19T09:28:54;2.38;;;2.28;;
13279;SDS011;6708;49.814;8.652;2022-08-19T09:31:24;2.00;;;1.98;;
13279;SDS011;6708;49.814;8.652;2022-08-19T09:33:54;2.35;;;2.15;;
13279;SDS011;6708;49.814;8.652;2022-08-19T09:36:24;2.25;;;2.03;;
13279;SDS011;6708;49.814;8.652;2022-08-19T09:38:57;2.05;;;1.95;;
13279;SDS011;6708;49.814;8.652;2022-08-19T09:41:27;2.03;;;1.92;;
13279;SDS011;6708;49.814;8.652;2022-08-19T09:44:00;2.35;;;2.20;;
13279;SDS011;6708;49.814;8.652;2022-08-19T09:46:29;2.40;;;2.30;;
13279;SDS011;6708;49.814;8.652;2022-08-19T09:49:01;1.95;;;1.92;;
13279;SDS011;6708;49.814;8.652;2022-08-19T09:51:31;2.85;;;2.65;;
13279;SDS011;6708;49.814;8.652;2022-08-19T09:54:00;3.13;;;2.78;;
13279;SDS011;6708;49.814;8.652;2022-08-19T09:56:30;3.08;;;2.00;;
13279;SDS011;6708;49.814;8.652;2022-08-19T09:59:02;2.60;;;2.40;;
13279;SDS011;6708;49.814;8.652;2022-08-19T10:01:31;2.20;;;2.05;;
13279;SDS011;6708;49.814;8.652;2022-08-19T10:04:00;2.05;;;1.95;;
13279;SDS011;6708;49.814;8.652;2022-08-19T10:06:34;2.60;;;2.50;;
13279;SDS011;6708;49.814;8.652;2022-08-19T10:09:04;2.10;;;2.00;;
13279;SDS011;6708;49.814;8.652;2022-08-19T10:11:35;4.75;;;2.95;;
13279;SDS011;6708;49.814;8.652;2022-08-19T10:14:07;2.78;;;2.67;;
13279;SDS011;6708;49.814;8.652;2022-08-19T10:16:36;2.50;;;2.40;;
13279;SDS011;6708;49.814;8.652;2022-08-19T10:19:06;3.03;;;2.40;;
13279;SDS011;6708;49.814;8.652;2022-08-19T10:21:35;3.75;;;3.38;;
13279;SDS011;6708;49.814;8.652;2022-08-19T10:24:04;3.35;;;2.97;;
13279;SDS011;6708;49.814;8.652;2022-08-19T10:26:34;3.47;;;3.28;;
13279;SDS011;6708;49.814;8.652;2022-08-19T10:29:09;3.80;;;3.05;;
13279;SDS011;6708;49.814;8.652;2022-08-19T10:31:41;2.65;;;2.45;;
13279;SDS011;6708;49.814;8.652;2022-08-19T10:34:10;2.90;;;2.38;;
13279;SDS011;6708;49.814;8.652;2022-08-19T10:36:38;2.83;;;2.50;;
13279;SDS011;6708;49.814;8.652;2022-08-19T10:39:09;2.38;;;2.25;;
13279;SDS011;6708;49.814;8.652;2022-08-19T10:41:38;3.13;;;2.92;;
13279;SDS011;6708;49.814;8.652;2022-08-19T10:44:12;2.35;;;2.25;;
13279;SDS011;6708;49.814;8.652;2022-08-19T10:46:42;3.35;;;3.05;;
13279;SDS011;6708;49.814;8.652;2022-08-19T10:49:12;2.83;;;2.72;;
13279;SDS011;6708;49.814;8.652;2022-08-19T10:51:41;2.60;;;2.40;;
13279;SDS011;6708;49.814;8.652;2022-08-19T10:54:22;2.75;;;2.63;;
13279;SDS011;6708;49.814;8.652;2022-08-19T10:57:11;3.22;;;3.03;;
13279;SDS011;6708;49.814;8.652;2022-08-19T10:59:40;2.78;;;2.67;;
13279;SDS011;6708;49.814;8.652;2022-08-19T11:02:09;2.65;;;2.45;;
13279;SDS011;6708;49.814;8.652;2022-08-19T11:04:39;3.10;;;2.90;;
13279;SDS011;6708;49.814;8.652;2022-08-19T11:07:08;2.65;;;2.47;;
13279;SDS011;6708;49.814;8.652;2022-08-19T11:09:38;2.55;;;2.45;;
13279;SDS011;6708;49.814;8.652;2022-08-19T11:12:08;2.63;;;2.53;;
13279;SDS011;6708;49.814;8.652;2022-08-19T11:14:40;5.20;;;2.80;;
13279;SDS011;6708;49.814;8.652;2022-08-19T11:17:09;2.53;;;2.42;;
13279;SDS011;6708;49.814;8.652;2022-08-19T11:19:39;2.78;;;2.67;;
13279;SDS011;6708;49.814;8.652;2022-08-19T11:22:08;6.50;;;2.83;;
13279;SDS011;6708;49.814;8.652;2022-08-19T11:24:37;3.85;;;3.22;;
13279;SDS011;6708;49.814;8.652;2022-08-19T11:27:06;3.47;;;3.20;;
13279;SDS011;6708;49.814;8.652;2022-08-19T11:29:39;3.65;;;3.38;;
13279;SDS011;6708;49.814;8.652;2022-08-19T11:32:08;3.88;;;3.22;;
13279;SDS011;6708;49.814;8.652;2022-08-19T11:34:38;2.83;;;2.63;;
13279;SDS011;6708;49.814;8.652;2022-08-19T11:37:07;2.83;;;2.72;;
13279;SDS011;6708;49.814;8.652;2022-08-19T11:39:36;3.50;;;3.28;;
13279;SDS011;6708;49.814;8.652;2022-08-19T11:42:05;3.67;;;3.47;;
13279;SDS011;6708;49.814;8.652;2022-08-19T11:44:57;3.35;;;3.05;;
13279;SDS011;6708;49.814;8.652;2022-08-19T11:47:28;6.25;;;3.50;;
13279;SDS011;6708;49.814;8.652;2022-08-19T11:49:58;5.88;;;3.40;;
13279;SDS011;6708;49.814;8.652;2022-08-19T11:52:26;4.28;;;3.97;;
13279;SDS011;6708;49.814;8.652;2022-08-19T11:54:55;3.22;;;3.10;;
13279;SDS011;6708;49.814;8.652;2022-08-19T11:57:23;3.97;;;3.45;;
13279;SDS011;6708;49.814;8.652;2022-08-19T11:59:52;3.70;;;3.45;;
13279;SDS011;6708;49.814;8.652;2022-08-19T12:02:23;3.78;;;3.58;;
13279;SDS011;6708;49.814;8.652;2022-08-19T12:04:52;3.65;;;3.45;;
13279;SDS011;6708;49.814;8.652;2022-08-19T12:07:21;4.38;;;4.00;;
13279;SDS011;6708;49.814;8.652;2022-08-19T12:09:50;4.43;;;4.05;;
13279;SDS011;6708;49.814;8.652;2022-08-19T12:12:18;4.45;;;4.22;;
13279;SDS011;6708;49.814;8.652;2022-08-19T12:14:48;3.35;;;3.20;;
13279;SDS011;6708;49.814;8.652;2022-08-19T12:17:24;3.53;;;2.78;;
13279;SDS011;6708;49.814;8.652;2022-08-19T12:19:54;2.92;;;2.78;;
13279;SDS011;6708;49.814;8.652;2022-08-19T12:22:22;3.28;;;3.08;;
13279;SDS011;6708;49.814;8.652;2022-08-19T12:24:51;3.72;;;3.42;;
13279;SDS011;6708;49.814;8.652;2022-08-19T12:27:20;3.63;;;3.42;;
13279;SDS011;6708;49.814;8.652;2022-08-19T12:29:49;3.10;;;2.90;;
13279;SDS011;6708;49.814;8.652;2022-08-19T12:32:17;3.08;;;2.92;;
13279;SDS011;6708;49.814;8.652;2022-08-19T12:34:49;3.55;;;3.25;;
13279;SDS011;6708;49.814;8.652;2022-08-19T12:37:17;3.78;;;3.45;;
13279;SDS011;6708;49.814;8.652;2022-08-19T12:39:46;3.38;;;3.17;;
13279;SDS011;6708;49.814;8.652;2022-08-19T12:42:14;4.60;;;3.35;;
13279;SDS011;6708;49.814;8.652;2022-08-19T12:44:43;3.28;;;2.97;;
13279;SDS011;6708;49.814;8.652;2022-08-19T12:47:12;4.28;;;3.20;;
13279;SDS011;6708;49.814;8.652;2022-08-19T12:49:42;3.10;;;2.95;;
13279;SDS011;6708;49.814;8.652;2022-08-19T12:52:14;2.65;;;2.55;;
13279;SDS011;6708;49.814;8.652;2022-08-19T12:54:46;2.47;;;2.38;;
13279;SDS011;6708;49.814;8.652;2022-08-19T12:57:15;3.08;;;2.90;;
13279;SDS011;6708;49.814;8.652;2022-08-19T12:59:43;2.70;;;2.60;;
13279;SDS011;6708;49.814;8.652;2022-08-19T13:02:12;2.53;;;2.42;;
13279;SDS011;6708;49.814;8.652;2022-08-19T13:04:41;2.03;;;1.90;;
13279;SDS011;6708;49.814;8.652;2022-08-19T13:07:09;2.10;;;2.00;;
13279;SDS011;6708;49.814;8.652;2022-08-19T13:09:41;2.70;;;2.60;;
13279;SDS011;6708;49.814;8.652;2022-08-19T13:12:09;1.95;;;1.85;;
13279;SDS011;6708;49.814;8.652;2022-08-19T13:14:39;1.77;;;1.67;;
13279;SDS011;6708;49.814;8.652;2022-08-19T13:17:15;1.92;;;1.83;;
13279;SDS011;6708;49.814;8.652;2022-08-19T13:19:43;1.92;;;1.88;;
13279;SDS011;6708;49.814;8.652;2022-08-19T13:22:12;2.60;;;2.38;;
13279;SDS011;6708;49.814;8.652;2022-08-19T13:24:43;2.10;;;2.00;;
13279;SDS011;6708;49.814;8.652;2022-08-19T13:27:13;2.65;;;2.00;;
13279;SDS011;6708;49.814;8.652;2022-08-19T13:29:42;3.33;;;2.05;;
13279;SDS011;6708;49.814;8.652;2022-08-19T13:32:23;2.03;;;1.92;;
13279;SDS011;6708;49.814;8.652;2022-08-19T13:35:05;2.42;;;2.22;;
13279;SDS011;6708;49.814;8.652;2022-08-19T13:37:34;2.22;;;2.13;;
13279;SDS011;6708;49.814;8.652;2022-08-19T13:40:13;1.73;;;1.73;;
13279;SDS011;6708;49.814;8.652;2022-08-19T13:42:44;1.83;;;1.73;;
13279;SDS011;6708;49.814;8.652;2022-08-19T13:45:14;1.83;;;1.73;;
13279;SDS011;6708;49.814;8.652;2022-08-19T13:47:45;1.75;;;1.65;;
13279;SDS011;6708;49.814;8.652;2022-08-19T13:50:15;1.77;;;1.67;;
13279;SDS011;6708;49.814;8.652;2022-08-19T13:52:45;1.60;;;1.60;;
13279;SDS011;6708;49.814;8.652;2022-08-19T13:55:18;1.92;;;1.83;;
13279;SDS011;6708;49.814;8.652;2022-08-19T13:57:49;2.00;;;1.90;;
13279;SDS011;6708;49.814;8.652;2022-08-19T14:00:18;2.38;;;2.28;;
13279;SDS011;6708;49.814;8.652;2022-08-19T14:02:49;1.67;;;1.60;;
13279;SDS011;6708;49.814;8.652;2022-08-19T14:05:19;1.58;;;1.48;;
13279;SDS011;6708;49.814;8.652;2022-08-19T14:07:48;1.73;;;1.55;;
13279;SDS011;6708;49.814;8.652;2022-08-19T14:10:19;1.55;;;1.55;;
13279;SDS011;6708;49.814;8.652;2022-08-19T14:12:49;1.90;;;1.80;;
13279;SDS011;6708;49.814;8.652;2022-08-19T14:15:17;2.45;;;2.25;;
13279;SDS011;6708;49.814;8.652;2022-08-19T14:17:46;1.92;;;1.45;;
13279;SDS011;6708;49.814;8.652;2022-08-19T14:20:15;1.65;;;1.55;;
13279;SDS011;6708;49.814;8.652;2022-08-19T14:22:45;1.40;;;1.40;;
13279;SDS011;6708;49.814;8.652;2022-08-19T14:25:15;2.22;;;1.25;;
13279;SDS011;6708;49.814;8.652;2022-08-19T14:27:49;1.35;;;1.35;;
13279;SDS011;6708;49.814;8.652;2022-08-19T14:30:20;1.40;;;1.40;;
13279;SDS011;6708;49.814;8.652;2022-08-19T14:32:50;1.67;;;1.10;;
13279;SDS011;6708;49.814;8.652;2022-08-19T14:35:19;1.55;;;1.50;;
13279;SDS011;6708;49.814;8.652;2022-08-19T14:37:49;1.40;;;1.30;;
13279;SDS011;6708;49.814;8.652;2022-08-19T14:40:19;1.30;;;1.30;;
13279;SDS011;6708;49.814;8.652;2022-08-19T14:42:54;0.90;;;0.90;;
13279;SDS011;6708;49.814;8.652;2022-08-19T14:45:24;9.57;;;1.77;;
13279;SDS011;6708;49.814;8.652;2022-08-19T14:47:53;1.60;;;1.60;;
13279;SDS011;6708;49.814;8.652;2022-08-19T14:50:22;1.60;;;1.50;;
13279;SDS011;6708;49.814;8.652;2022-08-19T14:52:56;1.70;;;1.67;;
13279;SDS011;6708;49.814;8.652;2022-08-19T14:55:26;2.80;;;1.95;;
13279;SDS011;6708;49.814;8.652;2022-08-19T14:57:58;1.63;;;1.52;;
13279;SDS011;6708;49.814;8.652;2022-08-19T15:00:26;1.95;;;1.80;;
13279;SDS011;6708;49.814;8.652;2022-08-19T15:02:55;1.73;;;1.63;;
13279;SDS011;6708;49.814;8.652;2022-08-19T15:05:24;1.88;;;1.77;;
13279;SDS011;6708;49.814;8.652;2022-08-19T15:07:53;1.92;;;1.83;;
13279;SDS011;6708;49.814;8.652;2022-08-19T15:10:27;1.92;;;1.80;;
13279;SDS011;6708;49.814;8.652;2022-08-19T15:12:59;2.00;;;1.80;;
13279;SDS011;6708;49.814;8.652;2022-08-19T15:15:27;1.40;;;1.30;;
13279;SDS011;6708;49.814;8.652;2022-08-19T15:17:56;2.50;;;2.05;;
13279;SDS011;6708;49.814;8.652;2022-08-19T15:20:28;1.90;;;1.80;;